Alcains, Portugal
Current Conditions -  °F | °C
As of 9:00 PM on Friday 31 Oct 2014 (Local Time) from LPMR Reporting Station
Thunderstorm Thunderstorm  
Wind Chill: 68°   Ceiling: 3000
Heat Index: 68°   Visibility: 6mi
Dew Point: 59°   Wind: 3mph
Humidity: 73%   Direction: 210°SSW
Pressure: 30.12"   Gusts: NA
Location:  39.92°N, 7.46°W
Report Text: LPMR 312200Z 21003KT 9999 TS FEW018 FEW020CB BKN030 20/15 Q1020
Loading
Personal Weather Stations






























Interactive Weather Map
Tropical Storm Tracking
New forecast layout! Learn more

10-Day Weather Forecast

Advertisements
Track Severe Weather on mobile